sensor_id;sensor_type;location;lat;lon;timestamp;temperature;humidity
3134;DHT22;1577;49.912;10.924;2023-04-02T00:09:02;9.20;99.90
3134;DHT22;1577;49.912;10.924;2023-04-02T00:11:43;9.20;99.90
3134;DHT22;1577;49.912;10.924;2023-04-02T00:14:16;9.30;99.90
3134;DHT22;1577;49.912;10.924;2023-04-02T00:16:43;9.30;99.90
3134;DHT22;1577;49.912;10.924;2023-04-02T00:19:26;9.40;99.90
3134;DHT22;1577;49.912;10.924;2023-04-02T00:21:54;9.40;99.90
3134;DHT22;1577;49.912;10.924;2023-04-02T00:24:21;9.40;99.90
3134;DHT22;1577;49.912;10.924;2023-04-02T00:26:49;9.40;99.90
3134;DHT22;1577;49.912;10.924;2023-04-02T00:29:16;9.40;99.90
3134;DHT22;1577;49.912;10.924;2023-04-02T00:31:46;9.40;99.90
3134;DHT22;1577;49.912;10.924;2023-04-02T00:34:33;9.40;99.90
3134;DHT22;1577;49.912;10.924;2023-04-02T00:37:00;9.40;99.90
3134;DHT22;1577;49.912;10.924;2023-04-02T00:39:28;9.40;99.90
3134;DHT22;1577;49.912;10.924;2023-04-02T00:41:57;9.40;99.90
3134;DHT22;1577;49.912;10.924;2023-04-02T00:44:35;9.40;99.90
3134;DHT22;1577;49.912;10.924;2023-04-02T00:47:09;9.40;99.90
3134;DHT22;1577;49.912;10.924;2023-04-02T00:49:38;9.30;99.90
3134;DHT22;1577;49.912;10.924;2023-04-02T00:52:16;9.40;99.90
3134;DHT22;1577;49.912;10.924;2023-04-02T00:54:48;9.40;99.90
3134;DHT22;1577;49.912;10.924;2023-04-02T00:57:18;9.30;99.90
3134;DHT22;1577;49.912;10.924;2023-04-02T01:00:21;9.30;99.90
3134;DHT22;1577;49.912;10.924;2023-04-02T01:05:45;9.20;99.90
3134;DHT22;1577;49.912;10.924;2023-04-02T01:08:39;9.20;99.90
3134;DHT22;1577;49.912;10.924;2023-04-02T01:24:44;9.30;99.90
3134;DHT22;1577;49.912;10.924;2023-04-02T01:27:27;9.30;99.90
3134;DHT22;1577;49.912;10.924;2023-04-02T01:29:55;9.30;99.90
3134;DHT22;1577;49.912;10.924;2023-04-02T01:32:24;9.30;99.90
3134;DHT22;1577;49.912;10.924;2023-04-02T01:34:51;9.30;99.90
3134;DHT22;1577;49.912;10.924;2023-04-02T01:45:35;9.30;99.90
3134;DHT22;1577;49.912;10.924;2023-04-02T01:48:05;9.30;99.90
3134;DHT22;1577;49.912;10.924;2023-04-02T01:50:38;9.20;99.90
3134;DHT22;1577;49.912;10.924;2023-04-02T01:53:06;9.20;99.90
3134;DHT22;1577;49.912;10.924;2023-04-02T01:55:47;9.30;99.90
3134;DHT22;1577;49.912;10.924;2023-04-02T01:58:18;9.30;99.90
3134;DHT22;1577;49.912;10.924;2023-04-02T02:01:04;9.40;99.90
3134;DHT22;1577;49.912;10.924;2023-04-02T02:03:31;9.30;99.90
3134;DHT22;1577;49.912;10.924;2023-04-02T02:05:58;9.30;99.90
3134;DHT22;1577;49.912;10.924;2023-04-02T02:08:36;9.30;99.90
3134;DHT22;1577;49.912;10.924;2023-04-02T02:11:03;9.40;99.90
3134;DHT22;1577;49.912;10.924;2023-04-02T02:13:29;9.50;99.90
3134;DHT22;1577;49.912;10.924;2023-04-02T02:15:58;9.50;99.90
3134;DHT22;1577;49.912;10.924;2023-04-02T02:18:24;9.50;99.90
3134;DHT22;1577;49.912;10.924;2023-04-02T02:20:52;9.50;99.90
3134;DHT22;1577;49.912;10.924;2023-04-02T02:23:18;9.60;99.90
3134;DHT22;1577;49.912;10.924;2023-04-02T02:25:45;9.60;99.90
3134;DHT22;1577;49.912;10.924;2023-04-02T02:28:19;9.50;99.90
3134;DHT22;1577;49.912;10.924;2023-04-02T02:31:06;9.50;99.90
3134;DHT22;1577;49.912;10.924;2023-04-02T02:33:49;9.50;99.90
3134;DHT22;1577;49.912;10.924;2023-04-02T02:36:23;9.50;99.90
3134;DHT22;1577;49.912;10.924;2023-04-02T02:39:01;9.50;99.90
3134;DHT22;1577;49.912;10.924;2023-04-02T02:46:24;9.40;99.90
3134;DHT22;1577;49.912;10.924;2023-04-02T02:48:53;9.40;99.90
3134;DHT22;1577;49.912;10.924;2023-04-02T02:52:00;9.40;99.90
3134;DHT22;1577;49.912;10.924;2023-04-02T02:54:25;9.40;99.90
3134;DHT22;1577;49.912;10.924;2023-04-02T02:56:59;9.40;99.90
3134;DHT22;1577;49.912;10.924;2023-04-02T02:59:27;9.30;99.90
3134;DHT22;1577;49.912;10.924;2023-04-02T03:01:54;9.40;99.90
3134;DHT22;1577;49.912;10.924;2023-04-02T03:04:23;9.30;99.90
3134;DHT22;1577;49.912;10.924;2023-04-02T03:06:51;9.30;99.90
3134;DHT22;1577;49.912;10.924;2023-04-02T03:11:55;9.30;99.90
3134;DHT22;1577;49.912;10.924;2023-04-02T03:14:41;9.30;99.90
3134;DHT22;1577;49.912;10.924;2023-04-02T03:17:30;9.30;99.90
3134;DHT22;1577;49.912;10.924;2023-04-02T03:22:48;9.40;99.90
3134;DHT22;1577;49.912;10.924;2023-04-02T03:25:40;9.50;99.90
3134;DHT22;1577;49.912;10.924;2023-04-02T03:28:13;9.50;99.90
3134;DHT22;1577;49.912;10.924;2023-04-02T03:30:46;9.50;99.90
3134;DHT22;1577;49.912;10.924;2023-04-02T03:33:16;9.50;99.90
3134;DHT22;1577;49.912;10.924;2023-04-02T03:38:30;9.40;99.90
3134;DHT22;1577;49.912;10.924;2023-04-02T03:41:02;9.50;99.90
3134;DHT22;1577;49.912;10.924;2023-04-02T03:43:33;9.50;99.90
3134;DHT22;1577;49.912;10.924;2023-04-02T03:46:35;9.40;99.90
3134;DHT22;1577;49.912;10.924;2023-04-02T03:49:10;9.50;99.90
3134;DHT22;1577;49.912;10.924;2023-04-02T03:54:18;9.50;99.90
3134;DHT22;1577;49.912;10.924;2023-04-02T03:56:45;9.50;99.90
3134;DHT22;1577;49.912;10.924;2023-04-02T03:59:34;9.60;99.90
3134;DHT22;1577;49.912;10.924;2023-04-02T04:02:38;9.60;99.90
3134;DHT22;1577;49.912;10.924;2023-04-02T04:05:13;9.50;99.90
3134;DHT22;1577;49.912;10.924;2023-04-02T04:07:43;9.50;99.90
3134;DHT22;1577;49.912;10.924;2023-04-02T04:10:16;9.50;99.90
3134;DHT22;1577;49.912;10.924;2023-04-02T04:12:46;9.60;99.90
3134;DHT22;1577;49.912;10.924;2023-04-02T04:15:24;9.60;99.90
3134;DHT22;1577;49.912;10.924;2023-04-02T04:18:31;9.60;99.90
3134;DHT22;1577;49.912;10.924;2023-04-02T04:21:11;9.60;99.90
3134;DHT22;1577;49.912;10.924;2023-04-02T04:23:40;9.60;99.90
3134;DHT22;1577;49.912;10.924;2023-04-02T04:26:18;9.60;99.90
3134;DHT22;1577;49.912;10.924;2023-04-02T04:28:57;9.60;99.90
3134;DHT22;1577;49.912;10.924;2023-04-02T04:31:39;9.50;99.90
3134;DHT22;1577;49.912;10.924;2023-04-02T04:34:11;9.40;99.90
3134;DHT22;1577;49.912;10.924;2023-04-02T04:36:46;9.30;99.90
3134;DHT22;1577;49.912;10.924;2023-04-02T04:39:23;9.30;99.90
3134;DHT22;1577;49.912;10.924;2023-04-02T04:41:50;9.30;99.90
3134;DHT22;1577;49.912;10.924;2023-04-02T04:44:56;9.30;99.90
3134;DHT22;1577;49.912;10.924;2023-04-02T04:47:25;9.40;99.90
3134;DHT22;1577;49.912;10.924;2023-04-02T04:50:05;9.40;99.90
3134;DHT22;1577;49.912;10.924;2023-04-02T04:52:38;9.40;99.90
3134;DHT22;1577;49.912;10.924;2023-04-02T04:55:39;9.40;99.90
3134;DHT22;1577;49.912;10.924;2023-04-02T04:58:23;9.30;99.90
3134;DHT22;1577;49.912;10.924;2023-04-02T05:03:43;9.30;99.90
3134;DHT22;1577;49.912;10.924;2023-04-02T05:06:20;9.30;99.90
3134;DHT22;1577;49.912;10.924;2023-04-02T05:08:51;9.20;99.90
3134;DHT22;1577;49.912;10.924;2023-04-02T05:11:32;9.20;99.90
3134;DHT22;1577;49.912;10.924;2023-04-02T05:14:05;9.30;99.90
3134;DHT22;1577;49.912;10.924;2023-04-02T05:16:44;9.30;99.90
3134;DHT22;1577;49.912;10.924;2023-04-02T05:20:13;9.30;99.90
3134;DHT22;1577;49.912;10.924;2023-04-02T05:33:04;9.10;99.90
3134;DHT22;1577;49.912;10.924;2023-04-02T05:35:35;8.90;99.90
3134;DHT22;1577;49.912;10.924;2023-04-02T05:38:05;8.80;99.90
3134;DHT22;1577;49.912;10.924;2023-04-02T05:40:38;8.80;99.90
3134;DHT22;1577;49.912;10.924;2023-04-02T05:43:08;8.70;99.90
3134;DHT22;1577;49.912;10.924;2023-04-02T05:48:15;8.60;99.90
3134;DHT22;1577;49.912;10.924;2023-04-02T05:50:44;8.40;99.90
3134;DHT22;1577;49.912;10.924;2023-04-02T05:53:25;8.30;99.90
3134;DHT22;1577;49.912;10.924;2023-04-02T06:04:10;8.10;99.90
3134;DHT22;1577;49.912;10.924;2023-04-02T06:06:45;8.00;99.90
3134;DHT22;1577;49.912;10.924;2023-04-02T06:09:19;7.90;99.90
3134;DHT22;1577;49.912;10.924;2023-04-02T06:11:51;7.90;99.90
3134;DHT22;1577;49.912;10.924;2023-04-02T06:14:18;7.90;99.90
3134;DHT22;1577;49.912;10.924;2023-04-02T06:16:44;7.90;99.90
3134;DHT22;1577;49.912;10.924;2023-04-02T06:19:32;7.80;99.90
3134;DHT22;1577;49.912;10.924;2023-04-02T06:22:08;7.80;99.90
3134;DHT22;1577;49.912;10.924;2023-04-02T06:24:36;7.80;99.90
3134;DHT22;1577;49.912;10.924;2023-04-02T06:27:04;7.80;99.90
3134;DHT22;1577;49.912;10.924;2023-04-02T06:29:36;7.90;99.90
3134;DHT22;1577;49.912;10.924;2023-04-02T06:32:06;8.00;99.90
3134;DHT22;1577;49.912;10.924;2023-04-02T06:34:35;8.00;99.90
3134;DHT22;1577;49.912;10.924;2023-04-02T06:39:43;8.00;99.90
3134;DHT22;1577;49.912;10.924;2023-04-02T06:42:13;8.00;99.90
3134;DHT22;1577;49.912;10.924;2023-04-02T06:44:40;7.90;99.90
3134;DHT22;1577;49.912;10.924;2023-04-02T06:50:03;7.80;99.90
3134;DHT22;1577;49.912;10.924;2023-04-02T06:52:35;7.70;99.90
3134;DHT22;1577;49.912;10.924;2023-04-02T06:57:46;7.50;99.90
3134;DHT22;1577;49.912;10.924;2023-04-02T07:00:34;7.60;99.90
3134;DHT22;1577;49.912;10.924;2023-04-02T07:03:04;7.60;99.90
3134;DHT22;1577;49.912;10.924;2023-04-02T07:05:30;7.50;99.90
3134;DHT22;1577;49.912;10.924;2023-04-02T07:07:56;7.50;99.90
3134;DHT22;1577;49.912;10.924;2023-04-02T07:10:22;7.50;99.90
3134;DHT22;1577;49.912;10.924;2023-04-02T07:12:47;7.50;99.90
3134;DHT22;1577;49.912;10.924;2023-04-02T07:15:17;7.60;99.90
3134;DHT22;1577;49.912;10.924;2023-04-02T07:17:44;7.60;99.90
3134;DHT22;1577;49.912;10.924;2023-04-02T07:20:33;7.60;99.90
3134;DHT22;1577;49.912;10.924;2023-04-02T07:23:02;7.60;99.90
3134;DHT22;1577;49.912;10.924;2023-04-02T07:25:28;7.60;99.90
3134;DHT22;1577;49.912;10.924;2023-04-02T07:27:54;7.60;99.90
3134;DHT22;1577;49.912;10.924;2023-04-02T07:30:20;7.70;99.90
3134;DHT22;1577;49.912;10.924;2023-04-02T07:32:46;7.60;99.90
3134;DHT22;1577;49.912;10.924;2023-04-02T07:35:12;7.60;99.90
3134;DHT22;1577;49.912;10.924;2023-04-02T07:37:38;7.70;99.90
3134;DHT22;1577;49.912;10.924;2023-04-02T07:40:22;7.80;99.90
3134;DHT22;1577;49.912;10.924;2023-04-02T07:42:48;7.80;99.90
3134;DHT22;1577;49.912;10.924;2023-04-02T07:45:15;7.80;99.90
3134;DHT22;1577;49.912;10.924;2023-04-02T07:47:41;7.80;99.90
3134;DHT22;1577;49.912;10.924;2023-04-02T07:50:07;7.90;99.90
3134;DHT22;1577;49.912;10.924;2023-04-02T07:52:37;7.80;99.90
3134;DHT22;1577;49.912;10.924;2023-04-02T07:55:03;7.80;99.90
3134;DHT22;1577;49.912;10.924;2023-04-02T07:57:29;7.70;99.90
3134;DHT22;1577;49.912;10.924;2023-04-02T07:59:54;7.70;99.90
3134;DHT22;1577;49.912;10.924;2023-04-02T08:02:22;7.70;99.90
3134;DHT22;1577;49.912;10.924;2023-04-02T08:04:49;7.70;99.90
3134;DHT22;1577;49.912;10.924;2023-04-02T08:07:16;7.60;99.90
3134;DHT22;1577;49.912;10.924;2023-04-02T08:09:43;7.60;99.90
3134;DHT22;1577;49.912;10.924;2023-04-02T08:12:12;7.60;99.90
3134;DHT22;1577;49.912;10.924;2023-04-02T08:14:38;7.60;99.90
3134;DHT22;1577;49.912;10.924;2023-04-02T09:18:16;7.50;99.90
3134;DHT22;1577;49.912;10.924;2023-04-02T09:20:43;7.10;99.90
3134;DHT22;1577;49.912;10.924;2023-04-02T09:23:17;7.10;99.90
3134;DHT22;1577;49.912;10.924;2023-04-02T09:25:47;7.20;99.90
3134;DHT22;1577;49.912;10.924;2023-04-02T09:28:13;7.30;99.90
3134;DHT22;1577;49.912;10.924;2023-04-02T09:30:57;7.30;99.90
3134;DHT22;1577;49.912;10.924;2023-04-02T09:33:59;7.40;99.90
3134;DHT22;1577;49.912;10.924;2023-04-02T09:36:37;7.30;99.90
3134;DHT22;1577;49.912;10.924;2023-04-02T09:39:16;7.30;99.90
3134;DHT22;1577;49.912;10.924;2023-04-02T09:41:42;7.30;99.90
3134;DHT22;1577;49.912;10.924;2023-04-02T09:44:12;7.20;99.90
3134;DHT22;1577;49.912;10.924;2023-04-02T09:46:56;7.00;99.90
3134;DHT22;1577;49.912;10.924;2023-04-02T09:49:38;7.00;99.90
3134;DHT22;1577;49.912;10.924;2023-04-02T09:54:36;6.90;99.90
3134;DHT22;1577;49.912;10.924;2023-04-02T09:57:20;7.00;99.90
3134;DHT22;1577;49.912;10.924;2023-04-02T10:02:32;7.00;99.90
3134;DHT22;1577;49.912;10.924;2023-04-02T10:05:02;6.90;99.90
3134;DHT22;1577;49.912;10.924;2023-04-02T10:07:29;6.90;99.90
3134;DHT22;1577;49.912;10.924;2023-04-02T10:09:57;6.90;99.90
3134;DHT22;1577;49.912;10.924;2023-04-02T10:12:24;6.80;99.90
3134;DHT22;1577;49.912;10.924;2023-04-02T10:14:51;6.80;99.90
3134;DHT22;1577;49.912;10.924;2023-04-02T10:17:22;6.70;99.90
3134;DHT22;1577;49.912;10.924;2023-04-02T10:20:04;6.70;99.90
3134;DHT22;1577;49.912;10.924;2023-04-02T10:22:31;6.70;99.90
3134;DHT22;1577;49.912;10.924;2023-04-02T10:24:58;6.60;99.90
3134;DHT22;1577;49.912;10.924;2023-04-02T10:27:42;6.60;99.90
3134;DHT22;1577;49.912;10.924;2023-04-02T10:30:27;6.60;99.90
3134;DHT22;1577;49.912;10.924;2023-04-02T10:33:34;6.60;99.90
3134;DHT22;1577;49.912;10.924;2023-04-02T10:39:01;6.70;99.90
3134;DHT22;1577;49.912;10.924;2023-04-02T10:53:18;6.80;99.90
3134;DHT22;1577;49.912;10.924;2023-04-02T10:55:57;6.80;99.90
3134;DHT22;1577;49.912;10.924;2023-04-02T10:58:29;6.90;99.90
3134;DHT22;1577;49.912;10.924;2023-04-02T11:00:59;7.00;99.90
3134;DHT22;1577;49.912;10.924;2023-04-02T11:03:40;7.10;99.90
3134;DHT22;1577;49.912;10.924;2023-04-02T11:06:22;7.10;99.90
3134;DHT22;1577;49.912;10.924;2023-04-02T11:08:51;7.10;99.90
3134;DHT22;1577;49.912;10.924;2023-04-02T11:11:29;7.00;99.90
3134;DHT22;1577;49.912;10.924;2023-04-02T11:16:33;6.80;99.90
3134;DHT22;1577;49.912;10.924;2023-04-02T11:21:37;6.80;99.90
3134;DHT22;1577;49.912;10.924;2023-04-02T11:24:04;6.90;99.90
3134;DHT22;1577;49.912;10.924;2023-04-02T11:26:42;6.90;99.90
3134;DHT22;1577;49.912;10.924;2023-04-02T11:29:29;6.90;99.90
3134;DHT22;1577;49.912;10.924;2023-04-02T11:37:40;6.90;99.90
3134;DHT22;1577;49.912;10.924;2023-04-02T11:42:47;7.30;99.90
3134;DHT22;1577;49.912;10.924;2023-04-02T11:50:52;7.20;99.90
3134;DHT22;1577;49.912;10.924;2023-04-02T11:53:32;7.20;99.90
3134;DHT22;1577;49.912;10.924;2023-04-02T11:56:18;7.20;99.90
3134;DHT22;1577;49.912;10.924;2023-04-02T12:01:42;7.20;99.90
3134;DHT22;1577;49.912;10.924;2023-04-02T12:04:26;7.10;99.90
3134;DHT22;1577;49.912;10.924;2023-04-02T12:09:56;7.10;99.90
3134;DHT22;1577;49.912;10.924;2023-04-02T12:14:51;7.20;99.90
3134;DHT22;1577;49.912;10.924;2023-04-02T12:17:35;7.30;99.90
3134;DHT22;1577;49.912;10.924;2023-04-02T12:22:50;7.40;99.90
3134;DHT22;1577;49.912;10.924;2023-04-02T12:25:22;7.30;99.90
3134;DHT22;1577;49.912;10.924;2023-04-02T12:28:16;7.30;99.90
3134;DHT22;1577;49.912;10.924;2023-04-02T12:30:43;7.30;99.90
3134;DHT22;1577;49.912;10.924;2023-04-02T12:33:50;7.30;99.90
3134;DHT22;1577;49.912;10.924;2023-04-02T12:38:46;7.10;99.90
3134;DHT22;1577;49.912;10.924;2023-04-02T12:41:37;7.00;99.90
3134;DHT22;1577;49.912;10.924;2023-04-02T12:44:10;6.90;99.90
3134;DHT22;1577;49.912;10.924;2023-04-02T12:46:40;6.90;99.90
3134;DHT22;1577;49.912;10.924;2023-04-02T12:49:06;6.90;99.90
3134;DHT22;1577;49.912;10.924;2023-04-02T12:51:34;6.90;99.90
3134;DHT22;1577;49.912;10.924;2023-04-02T12:54:01;7.00;99.90
3134;DHT22;1577;49.912;10.924;2023-04-02T12:56:26;6.90;99.90
3134;DHT22;1577;49.912;10.924;2023-04-02T12:58:58;6.80;99.90
3134;DHT22;1577;49.912;10.924;2023-04-02T13:01:26;6.80;99.90
3134;DHT22;1577;49.912;10.924;2023-04-02T13:04:09;6.70;99.90
3134;DHT22;1577;49.912;10.924;2023-04-02T23:57:28;6.70;99.90
3134;DHT22;1577;49.912;10.924;2023-04-02T23:59:54;2.70;99.90
